sensor_id;sensor_type;location;lat;lon;timestamp;pressure;altitude;pressure_sealevel;temperature;humidity
14120;BME280;7138;49.246;9.100;2023-11-18T00:01:16;99764.03;;;7.86;78.74
14120;BME280;7138;49.246;9.100;2023-11-18T00:03:42;99768.25;;;7.88;78.44
14120;BME280;7138;49.246;9.100;2023-11-18T00:06:08;99768.25;;;7.88;78.78
14120;BME280;7138;49.246;9.100;2023-11-18T00:08:34;99761.50;;;7.84;78.77
14120;BME280;7138;49.246;9.100;2023-11-18T00:11:00;99769.47;;;7.86;78.86
14120;BME280;7138;49.246;9.100;2023-11-18T00:13:27;99768.66;;;7.92;78.52
14120;BME280;7138;49.246;9.100;2023-11-18T00:15:53;99767.84;;;7.98;78.38
14120;BME280;7138;49.246;9.100;2023-11-18T00:18:19;99767.63;;;7.93;78.38
14120;BME280;7138;49.246;9.100;2023-11-18T00:20:45;99755.47;;;7.89;78.63
14120;BME280;7138;49.246;9.100;2023-11-18T00:23:11;99766.78;;;7.92;78.68
14120;BME280;7138;49.246;9.100;2023-11-18T00:25:37;99761.31;;;7.86;78.55
14120;BME280;7138;49.246;9.100;2023-11-18T00:28:05;99765.72;;;7.87;78.61
14120;BME280;7138;49.246;9.100;2023-11-18T00:30:36;99766.34;;;7.82;78.57
14120;BME280;7138;49.246;9.100;2023-11-18T00:33:02;99764.25;;;7.77;78.96
14120;BME280;7138;49.246;9.100;2023-11-18T00:35:27;99759.63;;;7.84;78.94
14120;BME280;7138;49.246;9.100;2023-11-18T00:37:55;99758.81;;;7.91;78.34
14120;BME280;7138;49.246;9.100;2023-11-18T00:40:21;99751.06;;;7.94;78.14
14120;BME280;7138;49.246;9.100;2023-11-18T00:42:47;99751.91;;;8.01;78.37
14120;BME280;7138;49.246;9.100;2023-11-18T00:45:13;99750.44;;;8.05;78.19
14120;BME280;7138;49.246;9.100;2023-11-18T00:47:40;99749.81;;;8.10;77.34
14120;BME280;7138;49.246;9.100;2023-11-18T00:50:07;99755.69;;;8.13;77.44
14120;BME280;7138;49.246;9.100;2023-11-18T00:52:33;99754.63;;;8.08;77.60
14120;BME280;7138;49.246;9.100;2023-11-18T00:54:59;99757.56;;;8.06;77.44
14120;BME280;7138;49.246;9.100;2023-11-18T00:57:26;99755.50;;;8.08;77.54
14120;BME280;7138;49.246;9.100;2023-11-18T00:59:52;99755.91;;;8.12;77.44
14120;BME280;7138;49.246;9.100;2023-11-18T01:02:18;99762.84;;;8.15;77.56
14120;BME280;7138;49.246;9.100;2023-11-18T01:04:45;99765.13;;;8.18;77.20
14120;BME280;7138;49.246;9.100;2023-11-18T01:07:11;99766.81;;;8.12;77.33
14120;BME280;7138;49.246;9.100;2023-11-18T01:09:37;99769.75;;;8.10;77.64
14120;BME280;7138;49.246;9.100;2023-11-18T01:12:05;99771.66;;;8.10;77.42
14120;BME280;7138;49.246;9.100;2023-11-18T01:14:36;99780.66;;;8.10;77.91
14120;BME280;7138;49.246;9.100;2023-11-18T01:17:02;99779.63;;;8.11;77.67
14120;BME280;7138;49.246;9.100;2023-11-18T01:19:28;99781.50;;;8.11;77.51
14120;BME280;7138;49.246;9.100;2023-11-18T01:21:55;99782.56;;;8.10;77.60
14120;BME280;7138;49.246;9.100;2023-11-18T01:24:21;99783.59;;;8.16;77.70
14120;BME280;7138;49.246;9.100;2023-11-18T01:26:47;99788.63;;;8.19;77.79
14120;BME280;7138;49.246;9.100;2023-11-18T01:29:13;99780.69;;;8.24;77.22
14120;BME280;7138;49.246;9.100;2023-11-18T01:31:39;99787.59;;;8.26;77.29
14120;BME280;7138;49.246;9.100;2023-11-18T01:34:06;99779.66;;;8.31;77.14
14120;BME280;7138;49.246;9.100;2023-11-18T01:36:33;99791.19;;;8.33;77.20
14120;BME280;7138;49.246;9.100;2023-11-18T01:39:00;99793.53;;;8.36;76.69
14120;BME280;7138;49.246;9.100;2023-11-18T01:41:26;99789.53;;;8.39;77.20
14120;BME280;7138;49.246;9.100;2023-11-18T01:43:52;99790.56;;;8.38;76.80
14120;BME280;7138;49.246;9.100;2023-11-18T01:46:20;99784.06;;;8.39;76.84
14120;BME280;7138;49.246;9.100;2023-11-18T01:48:47;99795.44;;;8.43;76.90
14120;BME280;7138;49.246;9.100;2023-11-18T01:51:13;99787.03;;;8.44;76.80
14120;BME280;7138;49.246;9.100;2023-11-18T01:53:42;99791.22;;;8.47;76.20
14120;BME280;7138;49.246;9.100;2023-11-18T01:56:10;99786.38;;;8.49;76.44
14120;BME280;7138;49.246;9.100;2023-11-18T01:58:37;99785.16;;;8.51;76.36
14120;BME280;7138;49.246;9.100;2023-11-18T02:01:04;99785.56;;;8.55;76.34
14120;BME280;7138;49.246;9.100;2023-11-18T02:03:34;99789.97;;;8.56;76.62
14120;BME280;7138;49.246;9.100;2023-11-18T02:06:01;99793.53;;;8.56;76.50
14120;BME280;7138;49.246;9.100;2023-11-18T02:08:28;99799.41;;;8.53;76.85
14120;BME280;7138;49.246;9.100;2023-11-18T02:11:01;99805.50;;;8.55;76.36
14120;BME280;7138;49.246;9.100;2023-11-18T02:13:34;99803.59;;;8.56;76.43
14120;BME280;7138;49.246;9.100;2023-11-18T02:16:07;99792.91;;;8.54;76.69
14120;BME280;7138;49.246;9.100;2023-11-18T02:18:35;99800.66;;;8.44;77.07
14120;BME280;7138;49.246;9.100;2023-11-18T02:21:07;99800.47;;;8.46;76.75
14120;BME280;7138;49.246;9.100;2023-11-18T02:23:33;99794.56;;;8.49;77.13
14120;BME280;7138;49.246;9.100;2023-11-18T02:26:01;99792.28;;;8.52;77.03
14120;BME280;7138;49.246;9.100;2023-11-18T02:28:27;99796.91;;;8.52;76.80
14120;BME280;7138;49.246;9.100;2023-11-18T02:31:09;99798.38;;;8.54;76.56
14120;BME280;7138;49.246;9.100;2023-11-18T02:33:51;99796.25;;;8.56;76.52
14120;BME280;7138;49.246;9.100;2023-11-18T02:36:29;99806.53;;;8.61;76.77
14120;BME280;7138;49.246;9.100;2023-11-18T02:39:04;99814.31;;;8.64;76.71
14120;BME280;7138;49.246;9.100;2023-11-18T02:41:35;99800.47;;;8.65;76.52
14120;BME280;7138;49.246;9.100;2023-11-18T02:44:04;99798.34;;;8.67;76.13
14120;BME280;7138;49.246;9.100;2023-11-18T02:46:35;99798.97;;;8.69;76.36
14120;BME280;7138;49.246;9.100;2023-11-18T02:49:01;99802.31;;;8.72;75.98
14120;BME280;7138;49.246;9.100;2023-11-18T02:51:28;99797.91;;;8.70;76.28
14120;BME280;7138;49.246;9.100;2023-11-18T02:53:56;99793.13;;;8.73;76.23
14120;BME280;7138;49.246;9.100;2023-11-18T02:56:22;99795.84;;;8.73;76.13
14120;BME280;7138;49.246;9.100;2023-11-18T02:58:49;99798.56;;;8.73;76.11
14120;BME280;7138;49.246;9.100;2023-11-18T03:01:15;99800.03;;;8.75;76.27
14120;BME280;7138;49.246;9.100;2023-11-18T03:03:41;99789.13;;;8.75;76.17
14120;BME280;7138;49.246;9.100;2023-11-18T03:06:08;99791.84;;;8.75;76.15
14120;BME280;7138;49.246;9.100;2023-11-18T03:08:35;99791.41;;;8.72;76.40
14120;BME280;7138;49.246;9.100;2023-11-18T03:11:00;99789.75;;;8.64;76.50
14120;BME280;7138;49.246;9.100;2023-11-18T03:13:28;99791.88;;;8.62;76.63
14120;BME280;7138;49.246;9.100;2023-11-18T03:15:55;99800.66;;;8.57;76.54
14120;BME280;7138;49.246;9.100;2023-11-18T03:18:21;99800.66;;;8.57;76.77
14120;BME280;7138;49.246;9.100;2023-11-18T03:20:47;99795.63;;;8.61;76.22
14120;BME280;7138;49.246;9.100;2023-11-18T03:23:14;99788.09;;;8.63;76.48
14120;BME280;7138;49.246;9.100;2023-11-18T03:25:40;99784.09;;;8.65;76.46
14120;BME280;7138;49.246;9.100;2023-11-18T03:28:06;99781.97;;;8.67;76.58
14120;BME280;7138;49.246;9.100;2023-11-18T03:30:32;99773.56;;;8.69;76.20
14120;BME280;7138;49.246;9.100;2023-11-18T03:32:59;99778.19;;;8.68;75.94
14120;BME280;7138;49.246;9.100;2023-11-18T03:35:25;99781.75;;;8.69;75.66
14120;BME280;7138;49.246;9.100;2023-11-18T03:37:51;99783.03;;;8.66;75.37
14120;BME280;7138;49.246;9.100;2023-11-18T03:40:17;99783.03;;;8.66;75.66
14120;BME280;7138;49.246;9.100;2023-11-18T03:42:44;99788.91;;;8.63;75.15
14120;BME280;7138;49.246;9.100;2023-11-18T03:45:12;99789.53;;;8.59;75.20
14120;BME280;7138;49.246;9.100;2023-11-18T03:47:40;99788.06;;;8.50;75.43
14120;BME280;7138;49.246;9.100;2023-11-18T03:50:09;99799.22;;;8.42;75.78
14120;BME280;7138;49.246;9.100;2023-11-18T03:52:36;99793.06;;;8.33;75.90
14120;BME280;7138;49.246;9.100;2023-11-18T03:55:03;99790.97;;;8.28;76.25
14120;BME280;7138;49.246;9.100;2023-11-18T03:57:29;99789.06;;;8.22;76.30
14120;BME280;7138;49.246;9.100;2023-11-18T03:59:55;99799.53;;;8.19;76.78
14120;BME280;7138;49.246;9.100;2023-11-18T04:02:20;99793.25;;;8.11;76.93
14120;BME280;7138;49.246;9.100;2023-11-18T04:04:46;99788.63;;;8.12;76.99
14120;BME280;7138;49.246;9.100;2023-11-18T04:07:15;99789.06;;;8.16;76.51
14120;BME280;7138;49.246;9.100;2023-11-18T04:09:41;99789.69;;;8.18;76.75
14120;BME280;7138;49.246;9.100;2023-11-18T04:12:08;99790.13;;;8.21;76.15
14120;BME280;7138;49.246;9.100;2023-11-18T04:14:34;99793.25;;;8.18;76.05
14120;BME280;7138;49.246;9.100;2023-11-18T04:16:59;99800.81;;;8.09;76.29
14120;BME280;7138;49.246;9.100;2023-11-18T04:19:25;99796.81;;;7.99;76.60
14120;BME280;7138;49.246;9.100;2023-11-18T04:21:51;99787.97;;;7.97;76.53
14120;BME280;7138;49.246;9.100;2023-11-18T04:24:18;99788.81;;;7.97;76.74
14120;BME280;7138;49.246;9.100;2023-11-18T04:26:45;99784.84;;;8.00;76.67
14120;BME280;7138;49.246;9.100;2023-11-18T04:29:11;99786.53;;;8.01;76.57
14120;BME280;7138;49.246;9.100;2023-11-18T04:31:37;99790.69;;;7.97;76.66
14120;BME280;7138;49.246;9.100;2023-11-18T04:34:03;99789.84;;;7.96;76.79
14120;BME280;7138;49.246;9.100;2023-11-18T04:36:32;99782.13;;;8.00;77.02
14120;BME280;7138;49.246;9.100;2023-11-18T04:38:58;99782.50;;;7.97;76.98
14120;BME280;7138;49.246;9.100;2023-11-18T04:41:26;99785.69;;;8.00;76.91
14120;BME280;7138;49.246;9.100;2023-11-18T04:43:51;99785.88;;;8.05;76.84
14120;BME280;7138;49.246;9.100;2023-11-18T04:46:18;99782.78;;;8.08;76.96
14120;BME280;7138;49.246;9.100;2023-11-18T04:48:45;99774.59;;;8.08;76.94
14120;BME280;7138;49.246;9.100;2023-11-18T04:51:10;99772.28;;;8.12;76.36
14120;BME280;7138;49.246;9.100;2023-11-18T04:53:37;99778.78;;;8.11;76.68
14120;BME280;7138;49.246;9.100;2023-11-18T04:56:05;99792.41;;;8.04;76.28
14120;BME280;7138;49.246;9.100;2023-11-18T04:58:37;99793.41;;;7.97;76.74
14120;BME280;7138;49.246;9.100;2023-11-18T05:01:04;99782.72;;;7.95;76.87
14120;BME280;7138;49.246;9.100;2023-11-18T05:03:30;99783.34;;;7.97;77.34
14120;BME280;7138;49.246;9.100;2023-11-18T05:05:56;99784.84;;;8.00;77.13
14120;BME280;7138;49.246;9.100;2023-11-18T05:08:22;99789.22;;;7.94;76.85
14120;BME280;7138;49.246;9.100;2023-11-18T05:10:48;99788.56;;;7.86;76.92
14120;BME280;7138;49.246;9.100;2023-11-18T05:13:14;99792.13;;;7.79;77.74
14120;BME280;7138;49.246;9.100;2023-11-18T05:15:44;99796.53;;;7.80;77.66
14120;BME280;7138;49.246;9.100;2023-11-18T05:18:13;99793.41;;;7.77;77.40
14120;BME280;7138;49.246;9.100;2023-11-18T05:20:40;99793.16;;;7.72;77.31
14120;BME280;7138;49.246;9.100;2023-11-18T05:23:06;99803.00;;;7.73;77.71
14120;BME280;7138;49.246;9.100;2023-11-18T05:25:35;99792.31;;;7.71;77.83
14120;BME280;7138;49.246;9.100;2023-11-18T05:28:01;99791.91;;;7.74;77.07
14120;BME280;7138;49.246;9.100;2023-11-18T05:30:27;99792.34;;;7.78;77.08
14120;BME280;7138;49.246;9.100;2023-11-18T05:32:54;99790.03;;;7.81;77.36
14120;BME280;7138;49.246;9.100;2023-11-18T05:35:20;99785.84;;;7.86;77.05
14120;BME280;7138;49.246;9.100;2023-11-18T05:37:53;99792.59;;;7.90;76.64
14120;BME280;7138;49.246;9.100;2023-11-18T05:40:20;99794.88;;;7.93;76.64
14120;BME280;7138;49.246;9.100;2023-11-18T05:42:47;99783.16;;;7.92;76.64
14120;BME280;7138;49.246;9.100;2023-11-18T05:45:14;99782.72;;;7.95;76.94
14120;BME280;7138;49.246;9.100;2023-11-18T05:47:54;99787.13;;;7.96;76.88
14120;BME280;7138;49.246;9.100;2023-11-18T05:50:21;99788.63;;;7.99;77.16
14120;BME280;7138;49.246;9.100;2023-11-18T05:52:46;99779.81;;;8.03;77.20
14120;BME280;7138;49.246;9.100;2023-11-18T05:55:13;99783.38;;;8.04;77.07
14120;BME280;7138;49.246;9.100;2023-11-18T05:57:39;99786.53;;;8.07;77.20
14120;BME280;7138;49.246;9.100;2023-11-18T06:00:07;99775.59;;;8.07;76.84
14120;BME280;7138;49.246;9.100;2023-11-18T06:02:34;99761.56;;;8.04;77.14
14120;BME280;7138;49.246;9.100;2023-11-18T06:05:03;99757.78;;;8.05;76.97
14120;BME280;7138;49.246;9.100;2023-11-18T06:07:30;99758.41;;;8.07;77.63
14120;BME280;7138;49.246;9.100;2023-11-18T06:09:56;99755.69;;;8.07;77.44
14120;BME280;7138;49.246;9.100;2023-11-18T06:12:23;99757.34;;;8.08;77.20
14120;BME280;7138;49.246;9.100;2023-11-18T06:14:49;99765.34;;;8.09;76.98
14120;BME280;7138;49.246;9.100;2023-11-18T06:17:17;99761.78;;;8.09;77.23
14120;BME280;7138;49.246;9.100;2023-11-18T06:19:44;99771.66;;;8.10;77.61
14120;BME280;7138;49.246;9.100;2023-11-18T06:22:11;99767.03;;;8.10;77.38
14120;BME280;7138;49.246;9.100;2023-11-18T06:24:37;99773.31;;;8.11;76.98
14120;BME280;7138;49.246;9.100;2023-11-18T06:27:05;99777.31;;;8.08;77.14
14120;BME280;7138;49.246;9.100;2023-11-18T06:29:34;99781.50;;;8.11;77.24
14120;BME280;7138;49.246;9.100;2023-11-18T06:32:00;99781.91;;;8.08;77.07
14120;BME280;7138;49.246;9.100;2023-11-18T06:34:26;99793.88;;;8.07;77.54
14120;BME280;7138;49.246;9.100;2023-11-18T06:36:52;99789.25;;;8.07;77.63
14120;BME280;7138;49.246;9.100;2023-11-18T06:39:20;99799.13;;;8.08;77.60
14120;BME280;7138;49.246;9.100;2023-11-18T06:41:51;99804.16;;;8.05;77.65
14120;BME280;7138;49.246;9.100;2023-11-18T06:44:17;99799.31;;;8.07;77.51
14120;BME280;7138;49.246;9.100;2023-11-18T06:46:49;99806.25;;;8.03;77.93
14120;BME280;7138;49.246;9.100;2023-11-18T06:49:17;99794.69;;;7.88;77.73
14120;BME280;7138;49.246;9.100;2023-11-18T06:51:43;99784.78;;;7.87;78.28
14120;BME280;7138;49.246;9.100;2023-11-18T06:54:09;99781.00;;;7.74;78.84
14120;BME280;7138;49.246;9.100;2023-11-18T06:56:39;99781.84;;;7.68;79.05
14120;BME280;7138;49.246;9.100;2023-11-18T06:59:05;99784.09;;;7.58;78.63
14120;BME280;7138;49.246;9.100;2023-11-18T07:01:32;99782.63;;;7.62;78.45
14120;BME280;7138;49.246;9.100;2023-11-18T07:03:59;99791.81;;;7.54;78.57
14120;BME280;7138;49.246;9.100;2023-11-18T07:06:25;99801.47;;;7.50;78.60
14120;BME280;7138;49.246;9.100;2023-11-18T07:08:54;99806.50;;;7.53;78.74
14120;BME280;7138;49.246;9.100;2023-11-18T07:11:20;99815.09;;;7.50;78.54
14120;BME280;7138;49.246;9.100;2023-11-18T07:13:48;99812.16;;;7.52;78.57
14120;BME280;7138;49.246;9.100;2023-11-18T07:16:23;99813.63;;;7.48;78.19
14120;BME280;7138;49.246;9.100;2023-11-18T07:18:48;99810.25;;;7.46;77.87
14120;BME280;7138;49.246;9.100;2023-11-18T07:21:14;99811.47;;;7.43;78.14
14120;BME280;7138;49.246;9.100;2023-11-18T07:23:40;99812.53;;;7.42;78.54
14120;BME280;7138;49.246;9.100;2023-11-18T07:26:08;99817.59;;;7.52;78.15
14120;BME280;7138;49.246;9.100;2023-11-18T07:28:35;99816.38;;;7.61;78.26
14120;BME280;7138;49.246;9.100;2023-11-18T07:31:03;99815.78;;;7.66;78.14
14120;BME280;7138;49.246;9.100;2023-11-18T07:33:30;99817.66;;;7.65;77.66
14120;BME280;7138;49.246;9.100;2023-11-18T07:35:58;99817.28;;;7.75;78.54
14120;BME280;7138;49.246;9.100;2023-11-18T07:38:24;99807.44;;;7.80;78.01
14120;BME280;7138;49.246;9.100;2023-11-18T07:40:52;99794.88;;;7.86;77.71
14120;BME280;7138;49.246;9.100;2023-11-18T07:43:21;99792.16;;;7.93;78.02
14120;BME280;7138;49.246;9.100;2023-11-18T07:45:47;99794.25;;;7.91;77.89
14120;BME280;7138;49.246;9.100;2023-11-18T07:48:20;99789.25;;;8.01;78.22
14120;BME280;7138;49.246;9.100;2023-11-18T07:50:46;99797.03;;;8.10;77.78
14120;BME280;7138;49.246;9.100;2023-11-18T07:53:16;99802.91;;;8.14;77.40
14120;BME280;7138;49.246;9.100;2023-11-18T07:55:42;99799.38;;;8.20;77.54
14120;BME280;7138;49.246;9.100;2023-11-18T07:58:08;99814.47;;;8.23;77.45
14120;BME280;7138;49.246;9.100;2023-11-18T08:00:36;99821.63;;;8.30;77.19
14120;BME280;7138;49.246;9.100;2023-11-18T08:03:04;99812.63;;;8.36;76.94
14120;BME280;7138;49.246;9.100;2023-11-18T08:05:34;99809.69;;;8.45;76.82
14120;BME280;7138;49.246;9.100;2023-11-18T08:07:59;99805.94;;;8.52;76.96
14120;BME280;7138;49.246;9.100;2023-11-18T08:10:26;99797.31;;;8.55;76.77
14120;BME280;7138;49.246;9.100;2023-11-18T08:12:55;99795.00;;;8.65;76.52
14120;BME280;7138;49.246;9.100;2023-11-18T08:15:21;99793.94;;;8.73;76.07
14120;BME280;7138;49.246;9.100;2023-11-18T08:17:47;99785.34;;;8.83;76.58
14120;BME280;7138;49.246;9.100;2023-11-18T08:20:13;99788.44;;;8.93;76.62
14120;BME280;7138;49.246;9.100;2023-11-18T08:22:43;99798.31;;;9.01;76.06
14120;BME280;7138;49.246;9.100;2023-11-18T08:25:10;99795.34;;;9.09;75.75
14120;BME280;7138;49.246;9.100;2023-11-18T08:27:36;99790.50;;;9.17;75.67
14120;BME280;7138;49.246;9.100;2023-11-18T08:30:02;99786.69;;;9.25;75.62
14120;BME280;7138;49.246;9.100;2023-11-18T08:32:31;99798.03;;;9.28;75.30
14120;BME280;7138;49.246;9.100;2023-11-18T08:34:57;99799.72;;;9.36;75.32
14120;BME280;7138;49.246;9.100;2023-11-18T08:37:23;99790.84;;;9.41;75.24
14120;BME280;7138;49.246;9.100;2023-11-18T08:39:50;99792.75;;;9.47;74.90
14120;BME280;7138;49.246;9.100;2023-11-18T08:42:16;99800.06;;;9.53;74.56
14120;BME280;7138;49.246;9.100;2023-11-18T08:44:43;99800.66;;;9.55;74.26
14120;BME280;7138;49.246;9.100;2023-11-18T08:47:09;99808.66;;;9.56;74.13
14120;BME280;7138;49.246;9.100;2023-11-18T08:49:35;99803.38;;;9.62;74.14
14120;BME280;7138;49.246;9.100;2023-11-18T08:52:00;99794.75;;;9.65;74.13
14120;BME280;7138;49.246;9.100;2023-11-18T08:54:27;99787.16;;;9.67;74.37
14120;BME280;7138;49.246;9.100;2023-11-18T08:57:04;99786.97;;;9.68;74.49
14120;BME280;7138;49.246;9.100;2023-11-18T08:59:45;99788.41;;;9.71;74.41
14120;BME280;7138;49.246;9.100;2023-11-18T09:02:11;99797.84;;;9.75;74.33
14120;BME280;7138;49.246;9.100;2023-11-18T09:04:41;99794.25;;;9.81;74.26
14120;BME280;7138;49.246;9.100;2023-11-18T09:07:09;99790.63;;;9.87;74.50
14120;BME280;7138;49.246;9.100;2023-11-18T09:09:35;99793.34;;;9.94;74.26
14120;BME280;7138;49.246;9.100;2023-11-18T09:12:03;99796.22;;;10.05;73.99
14120;BME280;7138;49.246;9.100;2023-11-18T09:14:29;99798.94;;;10.12;74.22
14120;BME280;7138;49.246;9.100;2023-11-18T09:16:55;99786.00;;;10.19;73.87
14120;BME280;7138;49.246;9.100;2023-11-18T09:19:24;99793.16;;;10.27;73.35
14120;BME280;7138;49.246;9.100;2023-11-18T09:21:50;99797.31;;;10.36;73.09
14120;BME280;7138;49.246;9.100;2023-11-18T09:24:17;99788.66;;;10.39;71.92
14120;BME280;7138;49.246;9.100;2023-11-18T09:26:46;99782.56;;;10.37;72.20
14120;BME280;7138;49.246;9.100;2023-11-18T09:29:17;99777.13;;;10.30;70.98
14120;BME280;7138;49.246;9.100;2023-11-18T09:31:45;99785.19;;;10.19;70.52
14120;BME280;7138;49.246;9.100;2023-11-18T09:34:13;99786.13;;;9.99;69.58
14120;BME280;7138;49.246;9.100;2023-11-18T09:36:41;99793.72;;;9.97;71.85
14120;BME280;7138;49.246;9.100;2023-11-18T09:39:09;99790.59;;;9.94;72.35
14120;BME280;7138;49.246;9.100;2023-11-18T09:41:41;99789.09;;;9.98;72.36
14120;BME280;7138;49.246;9.100;2023-11-18T09:44:07;99785.53;;;9.97;70.76
14120;BME280;7138;49.246;9.100;2023-11-18T09:46:37;99783.63;;;9.98;71.61
14120;BME280;7138;49.246;9.100;2023-11-18T09:49:27;99769.69;;;10.06;71.75
14120;BME280;7138;49.246;9.100;2023-11-18T09:52:03;99779.78;;;10.12;70.39
14120;BME280;7138;49.246;9.100;2023-11-18T09:54:39;99783.28;;;10.19;71.07
14120;BME280;7138;49.246;9.100;2023-11-18T09:57:18;99786.84;;;10.26;70.31
14120;BME280;7138;49.246;9.100;2023-11-18T09:59:55;99782.78;;;10.35;70.91
14120;BME280;7138;49.246;9.100;2023-11-18T10:02:26;99783.59;;;10.42;71.13
14120;BME280;7138;49.246;9.100;2023-11-18T10:04:58;99789.22;;;10.48;69.89
14120;BME280;7138;49.246;9.100;2023-11-18T10:07:27;99781.56;;;10.56;70.35
14120;BME280;7138;49.246;9.100;2023-11-18T10:09:58;99780.13;;;10.54;69.46
14120;BME280;7138;49.246;9.100;2023-11-18T10:12:24;99782.19;;;10.58;70.24
14120;BME280;7138;49.246;9.100;2023-11-18T10:14:52;99780.50;;;10.57;70.04
14120;BME280;7138;49.246;9.100;2023-11-18T10:17:18;99777.91;;;10.62;69.97
14120;BME280;7138;49.246;9.100;2023-11-18T10:19:53;99779.63;;;10.63;69.36
14120;BME280;7138;49.246;9.100;2023-11-18T10:22:23;99770.94;;;10.66;69.61
14120;BME280;7138;49.246;9.100;2023-11-18T10:24:50;99768.81;;;10.68;69.40
14120;BME280;7138;49.246;9.100;2023-11-18T10:27:21;99760.00;;;10.66;69.33
14120;BME280;7138;49.246;9.100;2023-11-18T10:29:49;99759.53;;;10.69;69.99
14120;BME280;7138;49.246;9.100;2023-11-18T10:32:15;99761.66;;;10.67;68.85
14120;BME280;7138;49.246;9.100;2023-11-18T10:34:47;99764.63;;;10.66;68.99
14120;BME280;7138;49.246;9.100;2023-11-18T10:37:15;99758.13;;;10.60;68.60
14120;BME280;7138;49.246;9.100;2023-11-18T10:39:47;99769.56;;;10.57;66.80
14120;BME280;7138;49.246;9.100;2023-11-18T10:42:17;99778.00;;;10.56;68.14
14120;BME280;7138;49.246;9.100;2023-11-18T10:44:55;99764.75;;;10.53;67.64
14120;BME280;7138;49.246;9.100;2023-11-18T10:47:24;99770.66;;;10.50;67.77
14120;BME280;7138;49.246;9.100;2023-11-18T10:49:52;99779.94;;;10.49;67.92
14120;BME280;7138;49.246;9.100;2023-11-18T10:52:20;99786.31;;;10.42;68.13
14120;BME280;7138;49.246;9.100;2023-11-18T10:54:50;99781.88;;;10.41;67.89
14120;BME280;7138;49.246;9.100;2023-11-18T10:57:20;99771.34;;;10.45;68.62
14120;BME280;7138;49.246;9.100;2023-11-18T10:59:59;99766.94;;;10.44;67.80
14120;BME280;7138;49.246;9.100;2023-11-18T11:02:25;99766.09;;;10.43;68.80
14120;BME280;7138;49.246;9.100;2023-11-18T11:04:51;99766.94;;;10.44;68.74
14120;BME280;7138;49.246;9.100;2023-11-18T11:07:21;99768.16;;;10.48;68.93
14120;BME280;7138;49.246;9.100;2023-11-18T11:09:49;99764.34;;;10.49;68.10
14120;BME280;7138;49.246;9.100;2023-11-18T11:12:25;99771.28;;;10.52;67.98
14120;BME280;7138;49.246;9.100;2023-11-18T11:15:00;99759.06;;;10.54;68.20
14120;BME280;7138;49.246;9.100;2023-11-18T11:17:30;99756.31;;;10.54;68.08
14120;BME280;7138;49.246;9.100;2023-11-18T11:20:05;99759.28;;;10.53;67.99
14120;BME280;7138;49.246;9.100;2023-11-18T11:23:08;99746.00;;;10.50;67.60
14120;BME280;7138;49.246;9.100;2023-11-18T11:25:48;99729.34;;;10.51;67.64
14120;BME280;7138;49.246;9.100;2023-11-18T11:28:21;99727.25;;;10.53;67.50
14120;BME280;7138;49.246;9.100;2023-11-18T11:30:55;99730.66;;;10.49;67.40
14120;BME280;7138;49.246;9.100;2023-11-18T11:33:32;99723.03;;;10.51;67.38
14120;BME280;7138;49.246;9.100;2023-11-18T11:36:11;99711.44;;;10.55;67.97
14120;BME280;7138;49.246;9.100;2023-11-18T11:38:39;99725.28;;;10.60;67.64
14120;BME280;7138;49.246;9.100;2023-11-18T11:41:07;99718.91;;;10.66;67.71
14120;BME280;7138;49.246;9.100;2023-11-18T11:43:34;99704.97;;;10.68;67.11
14120;BME280;7138;49.246;9.100;2023-11-18T11:46:01;99713.56;;;10.71;67.60
14120;BME280;7138;49.246;9.100;2023-11-18T11:48:36;99704.94;;;10.75;67.20
14120;BME280;7138;49.246;9.100;2023-11-18T11:51:22;99701.97;;;10.76;66.98
14120;BME280;7138;49.246;9.100;2023-11-18T11:54:01;99696.25;;;10.78;67.15
14120;BME280;7138;49.246;9.100;2023-11-18T11:56:40;99690.53;;;10.79;66.67
14120;BME280;7138;49.246;9.100;2023-11-18T11:59:07;99683.03;;;10.75;67.14
14120;BME280;7138;49.246;9.100;2023-11-18T12:01:37;99676.91;;;10.72;66.73
14120;BME280;7138;49.246;9.100;2023-11-18T12:04:04;99667.25;;;10.70;67.79
14120;BME280;7138;49.246;9.100;2023-11-18T12:06:33;99669.16;;;10.69;67.33
14120;BME280;7138;49.246;9.100;2023-11-18T12:09:03;99656.16;;;10.65;66.48
14120;BME280;7138;49.246;9.100;2023-11-18T12:11:34;99649.91;;;10.58;67.08
14120;BME280;7138;49.246;9.100;2023-11-18T12:14:12;99642.56;;;10.52;67.37
14120;BME280;7138;49.246;9.100;2023-11-18T12:17:00;99641.75;;;10.51;67.64
14120;BME280;7138;49.246;9.100;2023-11-18T12:19:30;99641.97;;;10.50;67.35
14120;BME280;7138;49.246;9.100;2023-11-18T12:22:18;99630.41;;;10.48;67.76
14120;BME280;7138;49.246;9.100;2023-11-18T12:28:08;99631.72;;;10.45;67.24
14120;BME280;7138;49.246;9.100;2023-11-18T12:30:45;99619.50;;;10.41;67.01
14120;BME280;7138;49.246;9.100;2023-11-18T12:33:19;99630.94;;;10.38;67.94
14120;BME280;7138;49.246;9.100;2023-11-18T12:36:37;99639.38;;;10.36;67.13
14120;BME280;7138;49.246;9.100;2023-11-18T12:39:49;99629.13;;;10.32;67.55
14120;BME280;7138;49.246;9.100;2023-11-18T12:43:01;99628.66;;;10.35;67.94
14120;BME280;7138;49.246;9.100;2023-11-18T12:46:18;99620.03;;;10.31;67.40
14120;BME280;7138;49.246;9.100;2023-11-18T12:48:57;99612.75;;;10.25;68.13
14120;BME280;7138;49.246;9.100;2023-11-18T12:51:26;99607.03;;;10.27;67.83
14120;BME280;7138;49.246;9.100;2023-11-18T12:53:52;99605.75;;;10.29;68.16
14120;BME280;7138;49.246;9.100;2023-11-18T12:56:20;99605.31;;;10.32;67.79
14120;BME280;7138;49.246;9.100;2023-11-18T12:58:47;99602.56;;;10.32;68.05
14120;BME280;7138;49.246;9.100;2023-11-18T13:01:13;99593.06;;;10.35;68.06
14120;BME280;7138;49.246;9.100;2023-11-18T13:03:40;99596.41;;;10.37;68.21
14120;BME280;7138;49.246;9.100;2023-11-18T13:06:08;99597.84;;;10.39;68.27
14120;BME280;7138;49.246;9.100;2023-11-18T13:08:34;99593.22;;;10.40;67.71
14120;BME280;7138;49.246;9.100;2023-11-18T13:11:00;99590.47;;;10.40;68.08
14120;BME280;7138;49.246;9.100;2023-11-18T13:13:28;99582.25;;;10.40;67.79
14120;BME280;7138;49.246;9.100;2023-11-18T13:15:57;99574.28;;;10.38;67.99
14120;BME280;7138;49.246;9.100;2023-11-18T13:18:24;99562.88;;;10.41;68.21
14120;BME280;7138;49.246;9.100;2023-11-18T13:20:56;99548.56;;;10.39;68.57
14120;BME280;7138;49.246;9.100;2023-11-18T13:23:25;99553.06;;;10.34;68.08
14120;BME280;7138;49.246;9.100;2023-11-18T13:25:55;99555.03;;;10.27;68.49
14120;BME280;7138;49.246;9.100;2023-11-18T13:28:22;99551.94;;;10.23;68.87
14120;BME280;7138;49.246;9.100;2023-11-18T13:30:48;99543.94;;;10.22;69.23
14120;BME280;7138;49.246;9.100;2023-11-18T13:33:17;99540.16;;;10.23;68.95